Portada
METAR-TAF:

METAR-TAF

Aeroports :

Ningbo, Xina

latitud: 29-49-36N, longitud: 121-27-43E, altitud: 4 m

Observació

L'informe es va fer fa 57 minuts, a les 19:00 UTC
Vent 4 kt del Est/Nord-Est, variant entre Nord/Nord-Est i Est
Temperatura 12°C
Humitat 88%
Pressió 1017 hPa
Visibilitat: 3200 m
Núvols disperses a una alçada de 900 ft
Cel ennuvolat a una alçada de 1600 ft
Cel cobert a una alçada de 3300 ft
boirina

METAR: ZSNB 181900Z 06002MPS 030V090 3200 BR SCT009 BKN016 OVC033 12/10 Q1017 NOSIG

Hora: 03:57 (19:57 UTC)

Pronòstic

L'informe es va fer fa 6 hores i 22 minuts, a les 13:35 UTC
Pronòstic vàlid del 18 a les 18 UTC al 19 a les 18 UTC
Vent 8 kt del Nord/Nord-Est
Visibilitat: 3500 m
Núvols disperses a una alçada de 3000 ft
boirina
Evolucionant progressivament
l' 19 a les 00 UTC al 19 a les 01 UTC
Vent 10 kt del Sud-Est

TAF: ZSNB 181335Z 1818/1918 03004MPS 3500 BR SCT030 TX22/1906Z TN08/1821Z BECMG 1900/1901 14005MPS

Observacions i pronòstics meteorològics de més de 4000 aeroports (METAR i TAF).

Les estacions disponibles són els punts grocs i vermells al mapa.

Posi el ratolí al punt desitjat per veure el nom de l'estació.

Feu clic per veure les observacions i els pronòstics meteorològics.

Per canviar el mapa: feu clic els botons verds amb una creu de color negre per apropar; al botó verd amb un guió per allunyar la imatge; o en les fletxes verdes per a mapes adjacents.


METAR-TAF: